createdAt,value
2018-02-07T00:01:51.694Z,21.47
2018-02-07T00:04:17.442Z,19.47
2018-02-07T00:06:43.215Z,19.83
2018-02-07T00:09:08.957Z,19.63
2018-02-07T00:11:34.715Z,19.07
2018-02-07T00:14:00.465Z,18.43
2018-02-07T00:16:26.229Z,17.37
2018-02-07T00:18:51.975Z,17.87
2018-02-07T00:21:17.742Z,16.13
2018-02-07T00:23:43.485Z,16.97
2018-02-07T00:26:09.242Z,15.47
2018-02-07T00:28:34.995Z,17.20
2018-02-07T00:31:00.755Z,16.83
2018-02-07T00:33:26.528Z,21.63
2018-02-07T00:35:52.345Z,26.27
2018-02-07T00:38:18.091Z,22.13
2018-02-07T00:40:43.844Z,21.47
2018-02-07T00:43:09.598Z,18.43
2018-02-07T00:45:35.343Z,17.97
2018-02-07T00:48:01.107Z,22.27
2018-02-07T00:50:26.847Z,22.03
2018-02-07T00:52:52.614Z,20.93
2018-02-07T00:55:18.354Z,19.97
2018-02-07T00:57:44.110Z,21.50
2018-02-07T01:00:09.854Z,20.37
2018-02-07T01:02:35.606Z,20.30
2018-02-07T01:05:01.363Z,18.23
2018-02-07T01:07:27.127Z,18.27
2018-02-07T01:09:52.870Z,18.20
2018-02-07T01:12:18.622Z,15.97
2018-02-07T01:14:44.388Z,17.60
2018-02-07T01:17:10.123Z,17.23
2018-02-07T01:19:36.089Z,17.37
2018-02-07T01:22:01.828Z,16.98
2018-02-07T01:24:27.594Z,16.23
2018-02-07T01:26:53.350Z,17.30
2018-02-07T01:29:19.115Z,15.43
2018-02-07T01:31:44.867Z,15.80
2018-02-07T01:34:10.626Z,16.40
2018-02-07T01:36:36.403Z,17.20
2018-02-07T01:39:02.167Z,17.97
2018-02-07T01:41:27.919Z,18.20
2018-02-07T01:43:53.682Z,18.13
2018-02-07T01:46:19.433Z,18.40
2018-02-07T01:48:45.178Z,17.67
2018-02-07T01:51:10.932Z,17.70
2018-02-07T01:53:36.687Z,16.97
2018-02-07T01:56:02.438Z,15.63
2018-02-07T01:58:28.223Z,15.93
2018-02-07T02:00:53.970Z,16.47
2018-02-07T02:03:19.734Z,15.10
2018-02-07T02:05:45.478Z,16.17
2018-02-07T02:08:11.235Z,16.77
2018-02-07T02:10:36.999Z,17.10
2018-02-07T02:13:02.754Z,17.73
2018-02-07T02:15:28.498Z,17.87
2018-02-07T02:17:54.247Z,17.63
2018-02-07T02:20:20.011Z,17.33
2018-02-07T02:22:45.764Z,17.03
2018-02-07T02:25:11.514Z,16.13
2018-02-07T02:27:37.262Z,15.73
2018-02-07T02:30:03.043Z,17.07
2018-02-07T02:32:28.790Z,16.80
2018-02-07T02:34:54.558Z,16.67
2018-02-07T02:37:20.324Z,15.33
2018-02-07T02:39:46.087Z,15.37
2018-02-07T02:42:11.843Z,15.63
2018-02-07T02:44:37.611Z,14.60
2018-02-07T02:47:03.355Z,15.37
2018-02-07T02:49:29.115Z,15.10
2018-02-07T02:51:54.907Z,17.07
2018-02-07T02:54:20.688Z,15.20
2018-02-07T02:56:46.447Z,15.30
2018-02-07T02:59:12.195Z,17.47
2018-02-07T03:01:37.974Z,17.70
2018-02-07T03:04:03.726Z,16.20
2018-02-07T03:06:29.491Z,15.13
2018-02-07T03:08:55.247Z,17.50
2018-02-07T03:11:20.998Z,18.53
2018-02-07T03:13:46.750Z,17.70
2018-02-07T03:16:12.525Z,15.27
2018-02-07T03:18:38.272Z,16.87
2018-02-07T03:21:04.040Z,17.67
2018-02-07T03:23:29.799Z,18.53
2018-02-07T03:25:55.555Z,17.03
2018-02-07T03:28:21.312Z,16.97
2018-02-07T03:30:47.081Z,16.53
2018-02-07T03:33:12.842Z,16.00
2018-02-07T03:35:38.576Z,17.40
2018-02-07T03:38:04.357Z,18.30
2018-02-07T03:40:30.110Z,16.93
2018-02-07T03:42:55.872Z,16.50
2018-02-07T03:45:21.610Z,17.03
2018-02-07T03:47:47.366Z,16.83
2018-02-07T03:50:13.114Z,16.60
2018-02-07T03:52:38.875Z,17.03
2018-02-07T03:55:04.619Z,17.50
2018-02-07T03:57:30.379Z,18.43
2018-02-07T03:59:56.131Z,18.27
2018-02-07T04:02:21.915Z,16.67
2018-02-07T04:04:47.663Z,15.97
2018-02-07T04:07:13.431Z,16.80
2018-02-07T04:09:39.182Z,16.23
2018-02-07T04:12:04.947Z,16.83
2018-02-07T04:14:30.688Z,16.70
2018-02-07T04:16:56.450Z,17.13
2018-02-07T04:19:22.199Z,17.37
2018-02-07T04:21:47.955Z,16.90
2018-02-07T04:24:13.702Z,15.10
2018-02-07T04:26:39.478Z,16.30
2018-02-07T04:29:05.234Z,16.43
2018-02-07T04:31:30.987Z,15.87
2018-02-07T04:33:56.747Z,17.90
2018-02-07T04:36:22.498Z,18.00
2018-02-07T04:38:48.270Z,16.87
2018-02-07T04:41:14.015Z,15.90
2018-02-07T04:43:39.780Z,17.10
2018-02-07T04:46:05.518Z,17.87
2018-02-07T04:48:31.278Z,17.67
2018-02-07T04:50:57.018Z,17.63
2018-02-07T04:53:22.798Z,17.03
2018-02-07T04:55:48.554Z,16.93
2018-02-07T04:58:14.323Z,17.07
2018-02-07T05:00:40.082Z,16.13
2018-02-07T05:03:05.849Z,16.83
2018-02-07T05:05:31.599Z,16.40
2018-02-07T05:07:57.360Z,15.97
2018-02-07T05:10:23.118Z,17.07
2018-02-07T05:12:48.902Z,15.77
2018-02-07T05:15:14.643Z,16.97
2018-02-07T05:17:40.399Z,16.07
2018-02-07T05:20:06.155Z,17.47
2018-02-07T05:22:31.903Z,18.80
2018-02-07T05:24:57.674Z,18.67
2018-02-07T05:27:23.418Z,16.93
2018-02-07T05:29:49.187Z,16.07
2018-02-07T05:32:14.942Z,17.70
2018-02-07T05:34:40.746Z,17.23
2018-02-07T05:37:06.503Z,16.07
2018-02-07T05:39:32.254Z,17.40
2018-02-07T05:41:58.009Z,17.27
2018-02-07T05:44:23.765Z,17.17
2018-02-07T05:46:49.503Z,17.40
2018-02-07T05:49:15.274Z,16.47
2018-02-07T05:51:41.018Z,16.67
2018-02-07T05:54:06.850Z,17.40
2018-02-07T05:56:32.594Z,19.10
2018-02-07T05:58:58.363Z,30.70
2018-02-07T06:01:24.116Z,24.07
2018-02-07T06:03:49.887Z,23.53
2018-02-07T06:06:15.651Z,21.43
2018-02-07T06:08:41.390Z,21.17
2018-02-07T06:11:07.149Z,19.40
2018-02-07T06:13:32.913Z,20.00
2018-02-07T06:15:58.679Z,21.20
2018-02-07T06:18:24.414Z,19.10
2018-02-07T06:20:50.195Z,19.27
2018-02-07T06:23:15.942Z,19.43
2018-02-07T06:25:41.709Z,28.30
2018-02-07T06:28:07.454Z,24.80
2018-02-07T06:30:33.231Z,23.20
2018-02-07T06:32:58.987Z,23.23
2018-02-07T06:35:24.774Z,22.90
2018-02-07T06:37:50.526Z,23.23
2018-02-07T06:40:16.296Z,22.30
2018-02-07T06:42:42.063Z,24.23
2018-02-07T06:45:07.852Z,22.27
2018-02-07T06:47:33.590Z,20.00
2018-02-07T06:49:59.413Z,20.33
2018-02-07T06:52:25.190Z,19.43
2018-02-07T06:54:50.944Z,20.37
2018-02-07T06:57:16.714Z,23.87
2018-02-07T06:59:42.477Z,32.60
2018-02-07T07:02:08.226Z,31.93
2018-02-07T07:04:33.986Z,31.00
2018-02-07T07:06:59.747Z,32.90
2018-02-07T07:09:25.503Z,29.30
2018-02-07T07:11:51.264Z,27.40
2018-02-07T07:14:17.015Z,26.67
2018-02-07T07:16:42.798Z,27.43
2018-02-07T07:19:08.546Z,25.83
2018-02-07T07:21:34.311Z,25.73
2018-02-07T07:24:00.072Z,24.23
2018-02-07T07:26:25.843Z,26.47
2018-02-07T07:28:51.603Z,23.47
2018-02-07T07:31:17.359Z,28.13
2018-02-07T07:33:43.099Z,34.40
2018-02-07T07:36:08.864Z,29.90
2018-02-07T07:38:34.618Z,29.77
2018-02-07T07:41:00.383Z,33.17
2018-02-07T07:43:26.127Z,33.10
2018-02-07T07:45:51.906Z,29.47
2018-02-07T07:48:17.670Z,28.40
2018-02-07T07:50:43.450Z,25.17
2018-02-07T07:53:09.200Z,22.30
2018-02-07T07:55:34.966Z,24.57
2018-02-07T07:58:00.742Z,28.47
2018-02-07T08:00:26.499Z,32.90
2018-02-07T08:02:52.264Z,31.37
2018-02-07T08:05:18.028Z,30.50
2018-02-07T08:07:43.788Z,31.10
2018-02-07T08:10:09.541Z,28.30
2018-02-07T08:12:35.314Z,29.43
2018-02-07T08:15:01.057Z,27.67
2018-02-07T08:17:26.831Z,25.60
2018-02-07T08:19:52.578Z,26.43
2018-02-07T08:22:18.356Z,27.83
2018-02-07T08:24:44.110Z,29.77
2018-02-07T08:27:09.873Z,28.17
2018-02-07T08:29:35.626Z,28.23
2018-02-07T08:32:01.394Z,29.93
2018-02-07T08:34:27.142Z,29.77
2018-02-07T08:36:52.918Z,30.77
2018-02-07T08:39:18.666Z,40.20
2018-02-07T08:41:44.434Z,34.67
2018-02-07T08:44:10.202Z,31.43
2018-02-07T08:46:35.958Z,31.43
2018-02-07T08:49:01.736Z,31.40
2018-02-07T08:51:27.486Z,31.30
2018-02-07T08:53:53.255Z,29.00
2018-02-07T08:56:19.000Z,31.27
2018-02-07T08:58:44.775Z,31.13
2018-02-07T09:01:10.532Z,30.33
2018-02-07T09:03:36.287Z,28.33
2018-02-07T09:06:02.093Z,26.00
2018-02-07T09:08:27.844Z,26.77
2018-02-07T09:10:53.609Z,24.67
2018-02-07T09:13:19.379Z,23.00
2018-02-07T09:15:45.122Z,23.00
2018-02-07T09:18:10.894Z,20.47
2018-02-07T09:20:36.677Z,22.73
2018-02-07T09:23:02.431Z,18.93
2018-02-07T09:25:28.174Z,19.87
2018-02-07T09:27:53.943Z,17.53
2018-02-07T09:30:19.695Z,17.77
2018-02-07T09:32:45.467Z,19.37
2018-02-07T09:35:11.217Z,17.07
2018-02-07T09:37:36.979Z,15.53
2018-02-07T09:40:02.743Z,13.70
2018-02-07T09:42:28.498Z,15.47
2018-02-07T09:44:54.287Z,16.73
2018-02-07T09:47:20.024Z,17.10
2018-02-07T09:49:45.784Z,15.87
2018-02-07T09:52:11.535Z,14.60
2018-02-07T09:54:37.312Z,13.40
2018-02-07T09:57:03.059Z,11.17
2018-02-07T09:59:28.823Z,11.23
2018-02-07T10:01:54.578Z,11.47
2018-02-07T10:04:20.334Z,13.00
2018-02-07T10:06:46.090Z,12.37
2018-02-07T10:09:11.855Z,13.30
2018-02-07T10:11:37.604Z,16.67
2018-02-07T10:14:03.378Z,13.17
2018-02-07T10:16:29.122Z,13.37
2018-02-07T10:18:54.906Z,13.63
2018-02-07T10:21:20.652Z,15.80
2018-02-07T10:23:46.418Z,13.13
2018-02-07T10:26:12.174Z,12.17
2018-02-07T10:28:37.925Z,13.10
2018-02-07T10:31:03.703Z,16.37
2018-02-07T10:33:29.453Z,11.73
2018-02-07T10:35:55.218Z,11.50
2018-02-07T10:38:20.986Z,15.07
2018-02-07T10:40:46.747Z,11.67
2018-02-07T10:43:12.498Z,11.73
2018-02-07T10:45:38.266Z,10.97
2018-02-07T10:48:04.012Z,10.20
2018-02-07T10:50:29.783Z,11.93
2018-02-07T10:52:55.530Z,10.87
2018-02-07T10:55:21.315Z,10.73
2018-02-07T10:57:47.060Z,12.93
2018-02-07T11:00:12.819Z,12.57
2018-02-07T11:02:38.571Z,12.07
2018-02-07T11:05:04.384Z,14.67
2018-02-07T11:07:30.134Z,18.13
2018-02-07T11:09:55.895Z,16.20
2018-02-07T11:12:21.650Z,12.90
2018-02-07T11:14:47.398Z,11.97
2018-02-07T11:17:13.165Z,12.33
2018-02-07T11:19:38.922Z,12.37
2018-02-07T11:22:04.684Z,13.53
2018-02-07T11:24:30.423Z,17.27
2018-02-07T11:26:56.178Z,12.03
2018-02-07T11:29:21.918Z,11.80
2018-02-07T11:31:47.683Z,10.87
2018-02-07T11:34:13.431Z,11.47
2018-02-07T11:36:39.210Z,13.83
2018-02-07T11:39:04.967Z,16.13
2018-02-07T11:41:30.744Z,12.77
2018-02-07T11:43:56.495Z,11.93
2018-02-07T11:46:22.249Z,12.30
2018-02-07T11:48:48.020Z,17.73
2018-02-07T11:51:13.769Z,12.17
2018-02-07T11:53:39.524Z,15.97
2018-02-07T11:56:05.294Z,10.77
2018-02-07T11:58:31.047Z,11.80
2018-02-07T12:00:56.819Z,12.00
2018-02-07T12:03:22.567Z,12.17
2018-02-07T12:05:48.315Z,12.33
2018-02-07T12:08:14.087Z,12.23
2018-02-07T12:10:39.839Z,12.77
2018-02-07T12:13:05.598Z,12.10
2018-02-07T12:15:31.368Z,11.30
2018-02-07T12:17:57.157Z,13.73
2018-02-07T12:20:22.948Z,12.90
2018-02-07T12:22:48.706Z,12.20
2018-02-07T12:25:14.466Z,13.30
2018-02-07T12:27:40.254Z,12.90
2018-02-07T12:30:06.033Z,12.40
2018-02-07T12:32:31.793Z,11.97
2018-02-07T12:34:57.548Z,12.87
2018-02-07T12:37:23.310Z,13.03
2018-02-07T12:39:49.055Z,11.60
2018-02-07T12:42:14.806Z,12.60
2018-02-07T12:44:40.563Z,12.23
2018-02-07T12:47:06.319Z,13.73
2018-02-07T12:49:32.051Z,12.43
2018-02-07T12:51:57.806Z,12.60
2018-02-07T12:54:23.551Z,12.47
2018-02-07T12:56:49.315Z,11.33
2018-02-07T12:59:15.063Z,13.90
2018-02-07T13:01:40.863Z,11.27
2018-02-07T13:04:06.613Z,12.50
2018-02-07T13:06:33.150Z,12.90
2018-02-07T13:08:58.906Z,12.90
2018-02-07T13:11:24.654Z,14.03
2018-02-07T13:13:50.468Z,11.97
2018-02-07T13:16:16.174Z,13.20
2018-02-07T13:18:41.906Z,11.97
2018-02-07T13:21:07.643Z,14.33
2018-02-07T13:23:33.378Z,11.73
2018-02-07T13:25:59.114Z,13.03
2018-02-07T13:28:24.859Z,13.27
2018-02-07T13:30:50.602Z,11.93
2018-02-07T13:33:16.374Z,16.07
2018-02-07T13:35:42.108Z,12.77
2018-02-07T13:38:07.868Z,9.53
2018-02-07T13:40:33.616Z,11.10
2018-02-07T13:42:59.394Z,12.10
2018-02-07T13:45:25.152Z,11.43
2018-02-07T13:47:50.902Z,16.03
2018-02-07T13:50:16.663Z,17.93
2018-02-07T13:52:42.401Z,20.13
2018-02-07T13:55:08.159Z,10.30
2018-02-07T13:57:33.914Z,10.43
2018-02-07T13:59:59.670Z,9.60
2018-02-07T14:02:25.423Z,10.27
2018-02-07T14:04:51.167Z,11.10
2018-02-07T14:07:16.918Z,14.60
2018-02-07T14:09:42.682Z,10.87
2018-02-07T14:12:08.427Z,11.87
2018-02-07T14:14:34.181Z,11.57
2018-02-07T14:16:59.934Z,13.40
2018-02-07T14:19:25.701Z,24.67
2018-02-07T14:21:51.440Z,12.13
2018-02-07T14:24:17.199Z,12.30
2018-02-07T14:26:42.946Z,11.17
2018-02-07T14:29:08.688Z,18.70
2018-02-07T14:31:34.446Z,20.57
2018-02-07T14:34:00.191Z,58.17
2018-02-07T14:36:26.007Z,17.33
2018-02-07T14:38:51.746Z,12.37
2018-02-07T14:41:17.497Z,13.87
2018-02-07T14:43:43.226Z,15.37
2018-02-07T14:46:08.971Z,12.67
2018-02-07T14:48:34.715Z,13.43
2018-02-07T14:51:00.466Z,12.73
2018-02-07T14:53:26.198Z,15.30
2018-02-07T14:55:51.943Z,11.80
2018-02-07T14:58:17.704Z,19.70
2018-02-07T15:00:43.454Z,14.47
2018-02-07T15:03:09.202Z,13.53
2018-02-07T15:05:34.945Z,13.03
2018-02-07T15:08:00.691Z,24.70
2018-02-07T15:10:26.431Z,15.60
2018-02-07T15:12:52.175Z,12.70
2018-02-07T15:15:17.927Z,13.00
2018-02-07T15:17:43.678Z,15.77
2018-02-07T15:20:09.431Z,12.47
2018-02-07T15:22:35.174Z,12.07
2018-02-07T15:25:00.929Z,12.17
2018-02-07T15:27:26.678Z,13.20
2018-02-07T15:29:52.419Z,12.53
2018-02-07T15:32:18.192Z,12.23
2018-02-07T15:34:43.931Z,12.17
2018-02-07T15:37:09.681Z,12.30
2018-02-07T15:39:35.435Z,14.90
2018-02-07T15:42:01.187Z,18.03
2018-02-07T15:44:26.934Z,14.67
2018-02-07T15:46:52.698Z,24.77
2018-02-07T15:49:18.445Z,36.93
2018-02-07T15:51:44.202Z,17.77
2018-02-07T15:54:09.942Z,18.20
2018-02-07T15:56:35.706Z,16.77
2018-02-07T15:59:01.456Z,13.93
2018-02-07T16:01:27.199Z,13.47
2018-02-07T16:03:52.955Z,15.40
2018-02-07T16:06:18.686Z,14.93
2018-02-07T16:08:44.432Z,20.73
2018-02-07T16:11:10.167Z,19.70
2018-02-07T16:13:35.939Z,14.77
2018-02-07T16:16:01.718Z,21.30
2018-02-07T16:18:27.472Z,23.23
2018-02-07T16:20:53.219Z,17.47
2018-02-07T16:23:18.975Z,22.20
2018-02-07T16:25:44.723Z,16.30
2018-02-07T16:28:10.467Z,17.63
2018-02-07T16:30:36.250Z,17.80
2018-02-07T16:33:02.012Z,16.60
2018-02-07T16:35:27.810Z,15.73
2018-02-07T16:37:53.539Z,15.70
2018-02-07T16:40:19.300Z,15.27
2018-02-07T16:42:45.048Z,14.33
2018-02-07T16:45:10.904Z,14.67
2018-02-07T16:47:36.574Z,14.00
2018-02-07T16:50:02.395Z,14.57
2018-02-07T16:52:28.152Z,18.37
2018-02-07T16:54:53.895Z,26.37
2018-02-07T16:57:19.634Z,23.40
2018-02-07T16:59:45.403Z,21.13
2018-02-07T17:02:11.155Z,19.10
2018-02-07T17:04:36.934Z,22.43
2018-02-07T17:07:02.695Z,26.50
2018-02-07T17:09:28.458Z,33.80
2018-02-07T17:11:54.215Z,30.90
2018-02-07T17:14:19.982Z,29.40
2018-02-07T17:16:45.734Z,28.57
2018-02-07T17:19:11.491Z,28.27
2018-02-07T17:21:37.242Z,30.57
2018-02-07T17:24:03.020Z,29.13
2018-02-07T17:26:28.795Z,26.13
2018-02-07T17:28:54.563Z,30.30
2018-02-07T17:31:20.323Z,29.17
2018-02-07T17:33:46.086Z,26.43
2018-02-07T17:36:11.870Z,28.60
2018-02-07T17:38:37.642Z,26.10
2018-02-07T17:41:03.419Z,29.00
2018-02-07T17:43:29.234Z,29.93
2018-02-07T17:45:55.016Z,31.80
2018-02-07T17:48:20.870Z,32.33
2018-02-07T17:50:46.678Z,34.87
2018-02-07T17:53:12.573Z,37.07
2018-02-07T17:55:38.339Z,36.57
2018-02-07T17:58:04.110Z,41.73
2018-02-07T18:00:29.915Z,38.57
2018-02-07T18:02:55.725Z,33.13
2018-02-07T18:05:21.493Z,37.67
2018-02-07T18:07:47.254Z,30.67
2018-02-07T18:10:12.994Z,36.57
2018-02-07T18:12:38.762Z,38.60
2018-02-07T18:15:04.524Z,37.20
2018-02-07T18:17:30.333Z,39.63
2018-02-07T18:19:56.102Z,36.57
2018-02-07T18:22:21.942Z,34.83
2018-02-07T18:24:47.741Z,35.87
2018-02-07T18:27:13.689Z,33.50
2018-02-07T18:29:39.471Z,34.60
2018-02-07T18:32:05.378Z,35.33
2018-02-07T18:34:31.146Z,35.20
2018-02-07T18:36:57.121Z,35.27
2018-02-07T18:39:22.960Z,35.08
2018-02-07T18:41:48.759Z,35.23
2018-02-07T18:44:14.549Z,36.77
2018-02-07T18:46:40.480Z,35.00
2018-02-07T18:49:06.287Z,34.33
2018-02-07T18:51:32.129Z,34.07
2018-02-07T18:53:57.940Z,35.30
2018-02-07T18:56:23.713Z,36.87
2018-02-07T18:58:49.575Z,36.37
2018-02-07T19:01:15.421Z,37.90
2018-02-07T19:03:41.838Z,37.97
2018-02-07T19:06:07.641Z,37.67
2018-02-07T19:08:33.469Z,41.23
2018-02-07T19:10:59.284Z,38.23
2018-02-07T19:13:25.079Z,41.57
2018-02-07T19:15:50.892Z,38.90
2018-02-07T19:18:16.669Z,40.60
2018-02-07T19:20:42.474Z,39.83
2018-02-07T19:23:08.346Z,38.50
2018-02-07T19:25:34.235Z,38.47
2018-02-07T19:27:59.982Z,37.70
2018-02-07T19:30:25.759Z,36.10
2018-02-07T19:32:51.532Z,34.70
2018-02-07T19:35:17.314Z,34.97
2018-02-07T19:37:43.180Z,30.57
2018-02-07T19:40:09.016Z,30.60
2018-02-07T19:42:34.820Z,32.13
2018-02-07T19:45:00.700Z,34.87
2018-02-07T19:47:26.468Z,38.43
2018-02-07T19:49:52.261Z,37.90
2018-02-07T19:52:18.067Z,38.10
2018-02-07T19:54:43.854Z,37.80
2018-02-07T19:57:09.687Z,34.43
2018-02-07T19:59:35.479Z,36.23
2018-02-07T20:02:01.324Z,37.00
2018-02-07T20:04:27.108Z,35.73
2018-02-07T20:06:52.868Z,34.77
2018-02-07T20:09:18.632Z,33.20
2018-02-07T20:11:44.390Z,32.43
2018-02-07T20:14:10.155Z,32.57
2018-02-07T20:16:35.926Z,31.93
2018-02-07T20:19:02.583Z,31.37
2018-02-07T20:21:28.346Z,31.45
2018-02-07T20:23:54.108Z,31.30
2018-02-07T20:26:19.884Z,34.83
2018-02-07T20:28:45.693Z,35.30
2018-02-07T20:31:11.488Z,33.03
2018-02-07T20:33:37.247Z,36.43
2018-02-07T20:36:03.021Z,36.77
2018-02-07T20:38:28.779Z,34.43
2018-02-07T20:40:54.551Z,36.27
2018-02-07T20:43:20.323Z,33.93
2018-02-07T20:45:46.074Z,34.00
2018-02-07T20:48:11.848Z,34.53
2018-02-07T20:50:37.601Z,34.33
2018-02-07T20:53:03.352Z,34.10
2018-02-07T20:55:29.117Z,35.83
2018-02-07T20:57:54.931Z,35.47
2018-02-07T21:00:20.694Z,35.17
2018-02-07T21:02:46.457Z,35.93
2018-02-07T21:05:12.232Z,36.60
2018-02-07T21:07:37.995Z,37.57
2018-02-07T21:10:03.779Z,38.37
2018-02-07T21:12:29.567Z,36.73
2018-02-07T21:14:55.342Z,38.03
2018-02-07T21:17:21.136Z,39.23
2018-02-07T21:19:46.941Z,39.07
2018-02-07T21:22:12.721Z,37.63
2018-02-07T21:24:38.491Z,37.80
2018-02-07T21:27:04.254Z,36.33
2018-02-07T21:29:30.017Z,35.43
2018-02-07T21:31:55.762Z,37.20
2018-02-07T21:34:21.541Z,36.33
2018-02-07T21:36:47.319Z,35.50
2018-02-07T21:39:13.105Z,36.43
2018-02-07T21:41:38.871Z,36.00
2018-02-07T21:44:04.656Z,35.87
2018-02-07T21:46:30.447Z,34.63
2018-02-07T21:48:56.214Z,35.57
2018-02-07T21:51:21.979Z,34.70
2018-02-07T21:53:47.750Z,35.83
2018-02-07T21:56:13.495Z,34.60
2018-02-07T21:58:39.278Z,33.50
2018-02-07T22:01:05.053Z,35.10
2018-02-07T22:03:30.823Z,36.37
2018-02-07T22:05:56.579Z,34.57
2018-02-07T22:08:22.346Z,35.60
2018-02-07T22:10:48.107Z,36.00
2018-02-07T22:13:13.894Z,36.17
2018-02-07T22:15:39.644Z,36.73
2018-02-07T22:18:05.426Z,37.07
2018-02-07T22:20:31.194Z,34.97
2018-02-07T22:22:57.002Z,35.97
2018-02-07T22:25:22.770Z,36.67
2018-02-07T22:27:48.523Z,36.40
2018-02-07T22:30:14.319Z,37.50
2018-02-07T22:32:40.155Z,39.43
2018-02-07T22:35:05.926Z,38.10
2018-02-07T22:37:31.692Z,36.83
2018-02-07T22:39:57.459Z,35.93
2018-02-07T22:42:23.237Z,38.27
2018-02-07T22:44:48.991Z,35.43
2018-02-07T22:47:14.758Z,36.70
2018-02-07T22:49:40.542Z,38.03
2018-02-07T22:52:06.320Z,36.20
2018-02-07T22:54:32.076Z,36.90
2018-02-07T22:56:57.835Z,38.97
2018-02-07T22:59:23.602Z,39.87
2018-02-07T23:01:49.377Z,36.63
2018-02-07T23:04:15.142Z,38.00
2018-02-07T23:06:40.908Z,38.20
2018-02-07T23:09:06.667Z,36.70
2018-02-07T23:11:32.431Z,35.27
2018-02-07T23:13:58.186Z,35.70
2018-02-07T23:16:23.954Z,34.27
2018-02-07T23:18:49.736Z,33.17
2018-02-07T23:21:15.552Z,31.83
2018-02-07T23:23:41.307Z,31.63
2018-02-07T23:26:07.059Z,30.00
2018-02-07T23:28:32.820Z,30.90
2018-02-07T23:30:58.599Z,30.47
2018-02-07T23:33:24.359Z,30.83
2018-02-07T23:35:50.131Z,31.80
2018-02-07T23:38:15.911Z,31.10
2018-02-07T23:40:41.670Z,30.57
2018-02-07T23:43:07.418Z,30.70
2018-02-07T23:45:33.195Z,34.20
2018-02-07T23:47:58.953Z,33.60
2018-02-07T23:50:24.720Z,31.37
2018-02-07T23:52:50.467Z,32.97
2018-02-07T23:55:16.236Z,29.27
2018-02-07T23:57:41.986Z,29.20
